This is the latest recevied weather packets stored in our database for station/object DG8SF-13. If no packets are shown the sender has not sent any weather packets the latest 1 day(s).
| Time | Temp. | Humidity | Pressure | Rain* | Wind** | Luminosity | Snow |
|---|---|---|---|---|---|---|---|
| 1777975423 | 20° C | 54% | 1007.2 hPa | 0 mm | 0.45 m/s, 135° | - | - |
| 1777975110 | 19.44° C | 58% | 1007.3 hPa | 0 mm | 0.45 m/s, 135° | - | - |
| 1777974799 | 18.89° C | 58% | 1007.2 hPa | 0 mm | 0.89 m/s, 135° | - | - |
| 1777974485 | 19.44° C | 59% | 1007.4 hPa | 0 mm | 0.89 m/s, 135° | - | - |
| 1777974174 | 19.44° C | 61% | 1007.4 hPa | 0 mm | 0.45 m/s, 135° | - | - |
| 1777973864 | 19.44° C | 59% | 1007.5 hPa | 0 mm | 0.45 m/s, 135° | - | - |
| 1777973551 | 19.44° C | 60% | 1007.5 hPa | 0 mm | 0.45 m/s, 135° | - | - |
| 1777973237 | 18.89° C | 62% | 1007.5 hPa | 0 mm | 0.45 m/s, 135° | - | - |
| 1777972925 | 18.33° C | 63% | 1007.6 hPa | 0 mm | 0.89 m/s, 135° | - | - |
| 1777972614 | 18.33° C | 63% | 1007.7 hPa | 0 mm | 0.89 m/s, 135° | - | - |
| 1777972303 | 18.89° C | 61% | 1007.6 hPa | 0 mm | 0.45 m/s, 135° | - | - |
| 1777971991 | 18.89° C | 60% | 1007.7 hPa | 0 mm | 0.45 m/s, 135° | - | - |
| 1777971677 | 18.89° C | 63% | 1007.6 hPa | 0 mm | 0.45 m/s, 158° | - | - |
| 1777971368 | 18.33° C | 63% | 1007.7 hPa | 0 mm | 0.45 m/s, 135° | - | - |
| 1777971053 | 18.33° C | 61% | 1007.7 hPa | 0 mm | 0 m/s | - | - |
| 1777970745 | 18.33° C | 60% | 1007.8 hPa | 0 mm | 0 m/s | - | - |
| 1777970429 | 18.89° C | 58% | 1007.8 hPa | 0 mm | 0.45 m/s, 135° | - | - |
| 1777970118 | 18.33° C | 60% | 1007.8 hPa | 0 mm | 0.45 m/s, 135° | - | - |
| 1777969806 | 20° C | 56% | 1007.8 hPa | 0 mm | 0.45 m/s, 135° | - | - |
| 1777969496 | 19.44° C | 59% | 1007.8 hPa | 0 mm | 0.89 m/s, 135° | - | - |
| 1777969187 | 19.44° C | 57% | 1007.8 hPa | 0 mm | 0.45 m/s, 112° | - | - |
| 1777968869 | 20° C | 56% | 1007.8 hPa | 0 mm | 0.45 m/s, 135° | - | - |
| 1777968557 | 18.89° C | 60% | 1007.8 hPa | 0 mm | 0.45 m/s, 135° | - | - |
| 1777968247 | 20° C | 58% | 1007.8 hPa | 0 mm | 0 m/s | - | - |
| 1777967934 | 18.89° C | 61% | 1007.8 hPa | 0 mm | 0 m/s | - | - |
* Rain latest hour (hover to see other rain measurements)
** Current wind speed in m/s (hover to see current wind gust speed)